Salonica, Greece
Current Conditions -  °F | °C
As of 11:20 PM on Wednesday 26 Nov 2014 (Local Time) from LGTS Reporting Station
Drizzle Drizzle  
Wind Chill: 46°   Ceiling: 3000
Heat Index: 46°   Visibility: 6mi
Dew Point: 41°   Wind: 3mph
Humidity: 81%   Direction: NA
Pressure: 30.21"   Gusts: NA
Location:  40.52°N, 22.97°E
Report Text: LGTS 262020Z VRB03KT 9999 DZ BKN030 OVC070 08/05 Q1023 NOSIG
Loading
Personal Weather Stations






























Interactive Weather Map New forecast layout! Learn more

10-Day Weather Forecast

Advertisements
Track Severe Weather on mobile